Time,TemperatureF,DewpointF,PressureIn,WindDirection,WindDirectionDegrees,WindSpeedMPH,WindSpeedGustMPH,Humidity,HourlyPrecipIn,Conditions,Clouds,dailyrainin,SolarRadiationWatts/m^2,SoftwareType,DateUTC
2013-04-29 00:03:00,52.0,51.0,29.21,North,359,1.0,4.0,98,0.00,,,2.45,0.000000,,2013-04-29 04:03:00,
2013-04-29 00:10:00,52.0,51.0,29.21,NW,318,1.0,3.0,98,0.01,,,2.46,0.000000,,2013-04-29 04:10:00,
2013-04-29 00:43:00,52.0,51.0,29.21,NW,318,1.0,3.0,98,0.01,,,2.46,0.000000,,2013-04-29 04:43:00,
2013-04-29 00:52:00,52.0,51.0,29.21,NW,318,1.0,3.0,98,0.01,,,2.46,0.000000,,2013-04-29 04:52:00,
2013-04-29 01:02:00,52.0,51.0,29.21,NW,318,1.0,3.0,98,0.01,,,2.46,0.000000,,2013-04-29 05:02:00,
2013-04-29 01:10:00,54.0,53.0,29.21,NNW,338,2.0,6.0,98,0.04,,,2.50,0.000000,,2013-04-29 05:10:00,
2013-04-29 01:32:00,54.0,53.0,29.21,NNW,338,2.0,6.0,98,0.04,,,2.50,0.000000,,2013-04-29 05:32:00,
2013-04-29 01:42:00,54.0,53.0,29.21,NNW,338,2.0,6.0,98,0.04,,,2.50,0.000000,,2013-04-29 05:42:00,
2013-04-29 01:52:00,54.0,53.0,29.21,NNW,338,2.0,6.0,98,0.04,,,2.50,0.000000,,2013-04-29 05:52:00,
2013-04-29 02:02:00,54.0,53.0,29.21,NNW,338,2.0,6.0,98,0.04,,,2.50,0.000000,,2013-04-29 06:02:00,
2013-04-29 02:10:00,54.0,53.0,29.19,NW,315,1.0,7.0,98,0.02,,,2.52,0.000000,,2013-04-29 06:10:00,
2013-04-29 02:42:00,54.0,53.0,29.19,NW,315,1.0,7.0,98,0.02,,,2.52,0.000000,,2013-04-29 06:42:00,
2013-04-29 02:52:00,54.0,53.0,29.19,NW,315,1.0,7.0,98,0.02,,,2.52,0.000000,,2013-04-29 06:52:00,
2013-04-29 03:02:00,54.0,53.0,29.19,NW,315,1.0,7.0,98,0.02,,,2.52,0.000000,,2013-04-29 07:02:00,
2013-04-29 03:10:00,54.0,53.0,29.18,NW,315,1.0,2.0,98,0.02,,,2.54,0.000000,,2013-04-29 07:10:00,
2013-04-29 03:32:00,54.0,53.0,29.18,NW,315,1.0,2.0,98,0.02,,,2.54,0.000000,,2013-04-29 07:32:00,
2013-04-29 03:42:00,54.0,53.0,29.18,NW,315,1.0,2.0,98,0.02,,,2.54,0.000000,,2013-04-29 07:42:00,
2013-04-29 03:52:00,54.0,53.0,29.18,NW,315,1.0,2.0,98,0.02,,,2.54,0.000000,,2013-04-29 07:52:00,
2013-04-29 04:03:00,54.0,53.0,29.18,NW,315,1.0,2.0,98,0.02,,,2.54,0.000000,,2013-04-29 08:03:00,
2013-04-29 04:10:00,52.0,51.0,29.16,WSW,258,1.0,7.0,98,0.01,,,2.55,0.000000,,2013-04-29 08:10:00,
2013-04-29 04:42:00,52.0,51.0,29.16,WSW,258,1.0,7.0,98,0.01,,,2.55,0.000000,,2013-04-29 08:42:00,
2013-04-29 04:52:00,52.0,51.0,29.16,WSW,258,1.0,7.0,98,0.01,,,2.55,0.000000,,2013-04-29 08:52:00,
2013-04-29 05:01:00,52.0,51.0,29.16,WSW,258,1.0,7.0,98,0.01,,,2.55,0.000000,,2013-04-29 09:01:00,
2013-04-29 05:10:00,54.0,53.0,29.16,NW,316,1.0,3.0,98,0.00,,,2.55,0.000000,,2013-04-29 09:10:00,
2013-04-29 05:42:00,54.0,53.0,29.16,NW,316,1.0,3.0,98,0.00,,,2.55,0.000000,,2013-04-29 09:42:00,
2013-04-29 05:53:00,54.0,53.0,29.16,NW,316,1.0,3.0,98,0.00,,,2.55,0.000000,,2013-04-29 09:53:00,
2013-04-29 06:02:00,54.0,53.0,29.16,NW,316,1.0,3.0,98,0.00,,,2.55,0.000000,,2013-04-29 10:02:00,
2013-04-29 06:10:00,52.0,51.0,29.15,West,261,1.0,4.0,98,0.00,,,2.52,0.000000,,2013-04-29 10:10:00,
2013-04-29 06:32:00,52.0,51.0,29.15,West,261,1.0,4.0,98,0.00,,,2.52,0.000000,,2013-04-29 10:32:00,
2013-04-29 06:42:00,52.0,51.0,29.15,West,261,1.0,4.0,98,0.00,,,2.52,0.000000,,2013-04-29 10:42:00,
2013-04-29 06:52:00,52.0,51.0,29.15,West,261,1.0,4.0,98,0.00,,,2.52,0.000000,,2013-04-29 10:52:00,
2013-04-29 07:03:00,52.0,51.0,29.15,West,261,1.0,4.0,98,0.00,,,2.52,0.000000,,2013-04-29 11:03:00,
2013-04-29 07:10:00,52.0,51.0,29.17,SW,228,0.0,2.0,98,0.01,,,2.53,0.000000,,2013-04-29 11:10:00,
2013-04-29 07:42:00,52.0,51.0,29.17,SW,228,0.0,2.0,98,0.01,,,2.53,0.000000,,2013-04-29 11:42:00,
2013-04-29 07:52:00,52.0,51.0,29.17,SW,228,0.0,2.0,98,0.01,,,2.53,0.000000,,2013-04-29 11:52:00,
2013-04-29 08:01:00,52.0,51.0,29.17,SW,228,0.0,2.0,98,0.01,,,2.53,0.000000,,2013-04-29 12:01:00,
2013-04-29 09:10:00,55.0,55.0,29.17,WNW,294,1.0,3.0,99,-99.99,,,2.39,22.000000,,2013-04-29 13:10:00,
2013-04-29 09:32:00,55.0,55.0,29.17,WNW,294,1.0,3.0,99,-99.99,,,2.39,22.000000,,2013-04-29 13:32:00,
2013-04-29 09:42:00,55.0,55.0,29.17,WNW,294,1.0,3.0,99,-99.99,,,2.39,22.000000,,2013-04-29 13:42:00,
2013-04-29 09:52:00,55.0,55.0,29.17,WNW,294,1.0,3.0,99,-99.99,,,2.39,22.000000,,2013-04-29 13:52:00,
2013-04-29 10:02:00,55.0,55.0,29.17,WNW,294,1.0,3.0,99,-99.99,,,2.39,22.000000,,2013-04-29 14:02:00,
2013-04-29 10:10:00,60.0,56.0,29.16,South,171,2.0,4.0,87,0.00,,,2.18,120.000000,,2013-04-29 14:10:00,
2013-04-29 10:42:00,60.0,56.0,29.16,South,171,2.0,4.0,87,0.00,,,2.18,120.000000,,2013-04-29 14:42:00,
2013-04-29 10:52:00,60.0,56.0,29.16,South,171,2.0,4.0,87,0.00,,,2.18,120.000000,,2013-04-29 14:52:00,
2013-04-29 11:01:00,60.0,56.0,29.16,South,171,2.0,4.0,87,0.00,,,2.18,120.000000,,2013-04-29 15:01:00,
2013-04-29 11:10:00,67.0,57.0,29.17,SE,136,3.0,6.0,70,0.00,,,1.97,249.000000,,2013-04-29 15:10:00,
2013-04-29 11:33:00,67.0,57.0,29.17,SE,136,3.0,6.0,70,0.00,,,1.97,249.000000,,2013-04-29 15:33:00,
2013-04-29 11:43:00,67.0,57.0,29.17,SE,136,3.0,6.0,70,0.00,,,1.97,249.000000,,2013-04-29 15:43:00,
2013-04-29 11:53:00,67.0,57.0,29.17,SE,136,3.0,6.0,70,0.00,,,1.97,249.000000,,2013-04-29 15:53:00,
2013-04-29 12:03:00,67.0,57.0,29.17,SE,136,3.0,6.0,70,0.00,,,1.97,249.000000,,2013-04-29 16:03:00,
2013-04-29 12:10:00,69.0,58.0,29.16,SE,134,4.0,11.0,69,0.00,,,1.54,610.000000,,2013-04-29 16:10:00,
2013-04-29 12:33:00,69.0,58.0,29.16,SE,134,4.0,11.0,69,0.00,,,1.54,610.000000,,2013-04-29 16:33:00,
2013-04-29 12:42:00,69.0,58.0,29.16,SE,134,4.0,11.0,69,0.00,,,1.54,610.000000,,2013-04-29 16:42:00,
2013-04-29 12:52:00,69.0,58.0,29.16,SE,134,4.0,11.0,69,0.00,,,1.54,610.000000,,2013-04-29 16:52:00,
2013-04-29 13:02:00,69.0,58.0,29.16,SE,134,4.0,11.0,69,0.00,,,1.54,610.000000,,2013-04-29 17:02:00,
2013-04-29 13:10:00,73.0,60.0,29.15,WNW,282,5.0,14.0,63,0.00,,,1.31,798.000000,,2013-04-29 17:10:00,
2013-04-29 13:32:00,73.0,60.0,29.15,WNW,282,5.0,14.0,63,0.00,,,1.31,798.000000,,2013-04-29 17:32:00,
2013-04-29 13:42:00,73.0,60.0,29.15,WNW,282,5.0,14.0,63,0.00,,,1.31,798.000000,,2013-04-29 17:42:00,
2013-04-29 13:52:00,73.0,60.0,29.15,WNW,282,5.0,14.0,63,0.00,,,1.31,798.000000,,2013-04-29 17:52:00,
2013-04-29 14:01:00,73.0,60.0,29.15,WNW,282,5.0,14.0,63,0.00,,,1.31,798.000000,,2013-04-29 18:01:00,
2013-04-29 14:10:00,70.0,58.0,29.14,SSE,156,6.0,14.0,66,0.00,,,1.04,743.000000,,2013-04-29 18:10:00,
2013-04-29 14:42:00,70.0,58.0,29.14,SSE,156,6.0,14.0,66,0.00,,,1.04,743.000000,,2013-04-29 18:42:00,
2013-04-29 14:52:00,70.0,58.0,29.14,SSE,156,6.0,14.0,66,0.00,,,1.04,743.000000,,2013-04-29 18:52:00,
2013-04-29 15:01:00,70.0,58.0,29.14,SSE,156,6.0,14.0,66,0.00,,,1.04,743.000000,,2013-04-29 19:01:00,
2013-04-29 16:10:00,73.0,58.0,29.09,SSE,152,5.0,12.0,60,-99.99,,,0.78,782.000000,,2013-04-29 20:10:00,
2013-04-29 16:43:00,73.0,58.0,29.09,SSE,152,5.0,12.0,60,-99.99,,,0.78,782.000000,,2013-04-29 20:43:00,
2013-04-29 16:52:00,73.0,58.0,29.09,SSE,152,5.0,12.0,60,-99.99,,,0.78,782.000000,,2013-04-29 20:52:00,
2013-04-29 17:02:00,73.0,58.0,29.09,SSE,152,5.0,12.0,60,-99.99,,,0.78,782.000000,,2013-04-29 21:02:00,
2013-04-29 18:10:00,72.0,56.0,29.08,SSE,158,3.0,8.0,57,-99.99,,,0.50,287.000000,,2013-04-29 22:10:00,
2013-04-29 18:32:00,72.0,56.0,29.08,SSE,158,3.0,8.0,57,-99.99,,,0.50,287.000000,,2013-04-29 22:32:00,
2013-04-29 18:42:00,72.0,56.0,29.08,SSE,158,3.0,8.0,57,-99.99,,,0.50,287.000000,,2013-04-29 22:42:00,
2013-04-29 18:53:00,72.0,56.0,29.08,SSE,158,3.0,8.0,57,-99.99,,,0.50,287.000000,,2013-04-29 22:53:00,
2013-04-29 19:02:00,72.0,56.0,29.08,SSE,158,3.0,8.0,57,-99.99,,,0.50,287.000000,,2013-04-29 23:02:00,
2013-04-29 19:10:00,70.0,58.0,29.07,SSE,163,2.0,8.0,65,0.00,,,0.35,283.000000,,2013-04-29 23:10:00,
2013-04-29 19:42:00,70.0,58.0,29.07,SSE,163,2.0,8.0,65,0.00,,,0.35,283.000000,,2013-04-29 23:42:00,
2013-04-29 19:53:00,70.0,58.0,29.07,SSE,163,2.0,8.0,65,0.00,,,0.35,283.000000,,2013-04-29 23:53:00,
2013-04-29 20:01:00,70.0,58.0,29.07,SSE,163,2.0,8.0,65,0.00,,,0.35,283.000000,,2013-04-30 00:01:00,